sensor_id;sensor_type;location;lat;lon;timestamp;P1;durP1;ratioP1;P2;durP2;ratioP2
3841;SDS011;1936;47.074;15.336;2022-07-04T00:01:08;9.27;;;7.30;;
3841;SDS011;1936;47.074;15.336;2022-07-04T00:03:11;6.53;;;5.93;;
3841;SDS011;1936;47.074;15.336;2022-07-04T00:05:15;8.50;;;6.80;;
3841;SDS011;1936;47.074;15.336;2022-07-04T00:07:19;8.17;;;6.33;;
3841;SDS011;1936;47.074;15.336;2022-07-04T00:09:23;8.50;;;6.57;;
3841;SDS011;1936;47.074;15.336;2022-07-04T00:11:26;6.67;;;6.07;;
3841;SDS011;1936;47.074;15.336;2022-07-04T00:13:30;10.37;;;5.90;;
3841;SDS011;1936;47.074;15.336;2022-07-04T00:15:33;8.03;;;7.23;;
3841;SDS011;1936;47.074;15.336;2022-07-04T00:17:38;10.70;;;6.83;;
3841;SDS011;1936;47.074;15.336;2022-07-04T00:19:42;8.80;;;7.70;;
3841;SDS011;1936;47.074;15.336;2022-07-04T00:21:45;7.20;;;6.50;;
3841;SDS011;1936;47.074;15.336;2022-07-04T00:23:49;6.87;;;6.23;;
3841;SDS011;1936;47.074;15.336;2022-07-04T00:25:52;6.33;;;5.83;;
3841;SDS011;1936;47.074;15.336;2022-07-04T00:27:56;6.10;;;5.60;;
3841;SDS011;1936;47.074;15.336;2022-07-04T00:30:00;7.03;;;5.87;;
3841;SDS011;1936;47.074;15.336;2022-07-04T00:32:03;6.67;;;5.33;;
3841;SDS011;1936;47.074;15.336;2022-07-04T00:34:08;7.60;;;6.77;;
3841;SDS011;1936;47.074;15.336;2022-07-04T00:36:12;7.03;;;5.80;;
3841;SDS011;1936;47.074;15.336;2022-07-04T00:38:15;8.60;;;5.70;;
3841;SDS011;1936;47.074;15.336;2022-07-04T00:40:19;7.90;;;7.10;;
3841;SDS011;1936;47.074;15.336;2022-07-04T00:42:23;8.57;;;6.30;;
3841;SDS011;1936;47.074;15.336;2022-07-04T00:44:26;8.70;;;7.10;;
3841;SDS011;1936;47.074;15.336;2022-07-04T00:46:31;8.47;;;6.83;;
3841;SDS011;1936;47.074;15.336;2022-07-04T00:48:34;8.27;;;5.97;;
3841;SDS011;1936;47.074;15.336;2022-07-04T00:50:39;13.23;;;6.77;;
3841;SDS011;1936;47.074;15.336;2022-07-04T00:52:43;7.83;;;5.30;;
3841;SDS011;1936;47.074;15.336;2022-07-04T00:54:47;12.33;;;7.30;;
3841;SDS011;1936;47.074;15.336;2022-07-04T00:56:50;7.30;;;6.40;;
3841;SDS011;1936;47.074;15.336;2022-07-04T00:58:55;7.10;;;6.03;;
3841;SDS011;1936;47.074;15.336;2022-07-04T01:01:00;6.60;;;6.00;;
3841;SDS011;1936;47.074;15.336;2022-07-04T01:03:04;7.27;;;6.40;;
3841;SDS011;1936;47.074;15.336;2022-07-04T01:05:07;9.73;;;6.17;;
3841;SDS011;1936;47.074;15.336;2022-07-04T01:07:12;17.10;;;6.20;;
3841;SDS011;1936;47.074;15.336;2022-07-04T01:09:16;7.70;;;6.37;;
3841;SDS011;1936;47.074;15.336;2022-07-04T01:11:19;6.47;;;5.87;;
3841;SDS011;1936;47.074;15.336;2022-07-04T01:13:23;6.03;;;5.50;;
3841;SDS011;1936;47.074;15.336;2022-07-04T01:15:27;10.97;;;6.53;;
3841;SDS011;1936;47.074;15.336;2022-07-04T01:17:30;9.73;;;7.23;;
3841;SDS011;1936;47.074;15.336;2022-07-04T01:19:34;7.87;;;6.93;;
3841;SDS011;1936;47.074;15.336;2022-07-04T01:21:39;7.13;;;5.93;;
3841;SDS011;1936;47.074;15.336;2022-07-04T01:23:42;5.83;;;5.33;;
3841;SDS011;1936;47.074;15.336;2022-07-04T01:25:46;7.03;;;6.33;;
3841;SDS011;1936;47.074;15.336;2022-07-04T01:27:51;9.43;;;6.20;;
3841;SDS011;1936;47.074;15.336;2022-07-04T01:29:55;8.27;;;6.90;;
3841;SDS011;1936;47.074;15.336;2022-07-04T01:32:02;7.83;;;7.03;;
3841;SDS011;1936;47.074;15.336;2022-07-04T01:34:06;7.00;;;6.43;;
3841;SDS011;1936;47.074;15.336;2022-07-04T01:36:10;7.97;;;7.17;;
3841;SDS011;1936;47.074;15.336;2022-07-04T01:38:14;7.30;;;6.60;;
3841;SDS011;1936;47.074;15.336;2022-07-04T01:40:18;10.93;;;6.33;;
3841;SDS011;1936;47.074;15.336;2022-07-04T01:42:22;11.03;;;6.50;;
3841;SDS011;1936;47.074;15.336;2022-07-04T01:44:25;7.03;;;6.37;;
3841;SDS011;1936;47.074;15.336;2022-07-04T01:46:29;11.80;;;8.30;;
3841;SDS011;1936;47.074;15.336;2022-07-04T01:48:32;6.37;;;5.87;;
3841;SDS011;1936;47.074;15.336;2022-07-04T01:50:36;8.67;;;6.03;;
3841;SDS011;1936;47.074;15.336;2022-07-04T01:52:41;6.97;;;6.17;;
3841;SDS011;1936;47.074;15.336;2022-07-04T01:54:46;7.67;;;6.23;;
3841;SDS011;1936;47.074;15.336;2022-07-04T01:56:50;7.20;;;6.60;;
3841;SDS011;1936;47.074;15.336;2022-07-04T01:58:53;10.90;;;5.77;;
3841;SDS011;1936;47.074;15.336;2022-07-04T02:00:57;7.27;;;6.57;;
3841;SDS011;1936;47.074;15.336;2022-07-04T02:03:18;7.90;;;6.63;;
3841;SDS011;1936;47.074;15.336;2022-07-04T02:05:21;6.80;;;6.10;;
3841;SDS011;1936;47.074;15.336;2022-07-04T02:07:25;8.23;;;7.43;;
3841;SDS011;1936;47.074;15.336;2022-07-04T02:09:30;11.17;;;8.30;;
3841;SDS011;1936;47.074;15.336;2022-07-04T02:11:35;7.20;;;6.27;;
3841;SDS011;1936;47.074;15.336;2022-07-04T02:13:57;7.33;;;6.73;;
3841;SDS011;1936;47.074;15.336;2022-07-04T02:16:00;7.73;;;6.07;;
3841;SDS011;1936;47.074;15.336;2022-07-04T02:18:05;7.30;;;6.60;;
3841;SDS011;1936;47.074;15.336;2022-07-04T02:20:09;8.13;;;6.40;;
3841;SDS011;1936;47.074;15.336;2022-07-04T02:22:13;6.63;;;6.10;;
3841;SDS011;1936;47.074;15.336;2022-07-04T02:24:17;7.80;;;7.10;;
3841;SDS011;1936;47.074;15.336;2022-07-04T02:26:20;8.63;;;6.90;;
3841;SDS011;1936;47.074;15.336;2022-07-04T02:28:26;7.47;;;6.77;;
3841;SDS011;1936;47.074;15.336;2022-07-04T02:30:29;11.23;;;6.70;;
3841;SDS011;1936;47.074;15.336;2022-07-04T02:32:33;7.67;;;6.80;;
3841;SDS011;1936;47.074;15.336;2022-07-04T02:34:36;8.63;;;6.07;;
3841;SDS011;1936;47.074;15.336;2022-07-04T02:36:40;6.53;;;5.93;;
3841;SDS011;1936;47.074;15.336;2022-07-04T02:38:43;6.67;;;6.10;;
3841;SDS011;1936;47.074;15.336;2022-07-04T02:40:47;7.93;;;7.17;;
3841;SDS011;1936;47.074;15.336;2022-07-04T02:42:50;6.03;;;5.50;;
3841;SDS011;1936;47.074;15.336;2022-07-04T02:44:55;7.07;;;6.37;;
3841;SDS011;1936;47.074;15.336;2022-07-04T02:46:59;6.80;;;6.10;;
3841;SDS011;1936;47.074;15.336;2022-07-04T02:49:03;7.53;;;6.73;;
3841;SDS011;1936;47.074;15.336;2022-07-04T02:51:06;7.47;;;6.73;;
3841;SDS011;1936;47.074;15.336;2022-07-04T02:53:10;9.43;;;6.20;;
3841;SDS011;1936;47.074;15.336;2022-07-04T02:55:13;7.23;;;6.57;;
3841;SDS011;1936;47.074;15.336;2022-07-04T02:57:17;8.73;;;7.57;;
3841;SDS011;1936;47.074;15.336;2022-07-04T02:59:20;10.40;;;6.33;;
3841;SDS011;1936;47.074;15.336;2022-07-04T03:01:25;14.20;;;6.80;;
3841;SDS011;1936;47.074;15.336;2022-07-04T03:03:29;13.50;;;7.23;;
3841;SDS011;1936;47.074;15.336;2022-07-04T03:05:33;8.77;;;7.83;;
3841;SDS011;1936;47.074;15.336;2022-07-04T03:07:36;7.40;;;6.20;;
3841;SDS011;1936;47.074;15.336;2022-07-04T03:09:39;10.07;;;7.10;;
3841;SDS011;1936;47.074;15.336;2022-07-04T03:11:43;7.30;;;5.90;;
3841;SDS011;1936;47.074;15.336;2022-07-04T03:13:47;6.17;;;5.67;;
3841;SDS011;1936;47.074;15.336;2022-07-04T03:15:50;6.87;;;6.07;;
3841;SDS011;1936;47.074;15.336;2022-07-04T03:17:55;10.33;;;6.43;;
3841;SDS011;1936;47.074;15.336;2022-07-04T03:19:59;7.23;;;6.53;;
3841;SDS011;1936;47.074;15.336;2022-07-04T03:22:03;8.60;;;6.27;;
3841;SDS011;1936;47.074;15.336;2022-07-04T03:24:06;7.70;;;6.67;;
3841;SDS011;1936;47.074;15.336;2022-07-04T03:26:10;7.90;;;7.10;;
3841;SDS011;1936;47.074;15.336;2022-07-04T03:28:14;7.07;;;6.47;;
3841;SDS011;1936;47.074;15.336;2022-07-04T03:30:17;7.20;;;6.50;;
3841;SDS011;1936;47.074;15.336;2022-07-04T03:32:21;6.97;;;6.37;;
3841;SDS011;1936;47.074;15.336;2022-07-04T03:34:26;8.77;;;7.00;;
3841;SDS011;1936;47.074;15.336;2022-07-04T03:36:30;7.93;;;6.33;;
3841;SDS011;1936;47.074;15.336;2022-07-04T03:38:33;11.10;;;7.40;;
3841;SDS011;1936;47.074;15.336;2022-07-04T03:40:37;8.70;;;7.50;;
3841;SDS011;1936;47.074;15.336;2022-07-04T03:42:40;8.17;;;7.30;;
3841;SDS011;1936;47.074;15.336;2022-07-04T03:44:44;7.20;;;6.60;;
3841;SDS011;1936;47.074;15.336;2022-07-04T03:46:48;6.90;;;6.27;;
3841;SDS011;1936;47.074;15.336;2022-07-04T03:48:52;7.80;;;6.60;;
3841;SDS011;1936;47.074;15.336;2022-07-04T03:50:58;7.27;;;6.57;;
3841;SDS011;1936;47.074;15.336;2022-07-04T03:53:02;6.83;;;6.13;;
3841;SDS011;1936;47.074;15.336;2022-07-04T03:55:05;8.30;;;7.50;;
3841;SDS011;1936;47.074;15.336;2022-07-04T03:57:09;7.43;;;6.73;;
3841;SDS011;1936;47.074;15.336;2022-07-04T03:59:13;10.60;;;6.93;;
3841;SDS011;1936;47.074;15.336;2022-07-04T04:01:17;7.70;;;6.90;;
3841;SDS011;1936;47.074;15.336;2022-07-04T04:03:20;6.77;;;6.17;;
3841;SDS011;1936;47.074;15.336;2022-07-04T04:05:42;7.53;;;6.80;;
3841;SDS011;1936;47.074;15.336;2022-07-04T04:07:47;7.03;;;6.30;;
3841;SDS011;1936;47.074;15.336;2022-07-04T04:09:50;7.03;;;6.40;;
3841;SDS011;1936;47.074;15.336;2022-07-04T04:11:54;8.67;;;7.87;;
3841;SDS011;1936;47.074;15.336;2022-07-04T04:13:57;10.20;;;7.33;;
3841;SDS011;1936;47.074;15.336;2022-07-04T04:16:01;10.80;;;6.70;;
3841;SDS011;1936;47.074;15.336;2022-07-04T04:18:04;7.20;;;6.20;;
3841;SDS011;1936;47.074;15.336;2022-07-04T04:20:08;7.07;;;6.40;;
3841;SDS011;1936;47.074;15.336;2022-07-04T04:22:12;6.90;;;6.30;;
3841;SDS011;1936;47.074;15.336;2022-07-04T04:24:17;6.33;;;5.73;;
3841;SDS011;1936;47.074;15.336;2022-07-04T04:26:20;12.70;;;6.30;;
3841;SDS011;1936;47.074;15.336;2022-07-04T04:28:24;6.80;;;6.20;;
3841;SDS011;1936;47.074;15.336;2022-07-04T04:30:27;7.20;;;6.37;;
3841;SDS011;1936;47.074;15.336;2022-07-04T04:32:31;6.47;;;5.97;;
3841;SDS011;1936;47.074;15.336;2022-07-04T04:34:34;7.60;;;5.93;;
3841;SDS011;1936;47.074;15.336;2022-07-04T04:36:38;7.23;;;6.60;;
3841;SDS011;1936;47.074;15.336;2022-07-04T04:38:41;5.67;;;5.17;;
3841;SDS011;1936;47.074;15.336;2022-07-04T04:40:46;7.30;;;5.73;;
3841;SDS011;1936;47.074;15.336;2022-07-04T04:42:49;6.10;;;5.47;;
3841;SDS011;1936;47.074;15.336;2022-07-04T04:44:53;8.50;;;5.80;;
3841;SDS011;1936;47.074;15.336;2022-07-04T04:46:57;5.90;;;5.30;;
3841;SDS011;1936;47.074;15.336;2022-07-04T04:49:00;6.37;;;5.67;;
3841;SDS011;1936;47.074;15.336;2022-07-04T04:51:03;8.00;;;6.07;;
3841;SDS011;1936;47.074;15.336;2022-07-04T04:53:09;5.97;;;5.40;;
3841;SDS011;1936;47.074;15.336;2022-07-04T04:55:13;6.03;;;5.53;;
3841;SDS011;1936;47.074;15.336;2022-07-04T04:57:18;5.90;;;4.83;;
3841;SDS011;1936;47.074;15.336;2022-07-04T04:59:21;6.13;;;5.53;;
3841;SDS011;1936;47.074;15.336;2022-07-04T05:01:25;6.60;;;5.93;;
3841;SDS011;1936;47.074;15.336;2022-07-04T05:03:42;9.00;;;5.17;;
3841;SDS011;1936;47.074;15.336;2022-07-04T05:05:46;6.03;;;5.30;;
3841;SDS011;1936;47.074;15.336;2022-07-04T05:07:51;7.40;;;5.07;;
3841;SDS011;1936;47.074;15.336;2022-07-04T05:09:55;7.97;;;5.73;;
3841;SDS011;1936;47.074;15.336;2022-07-04T05:12:00;6.40;;;5.80;;
3841;SDS011;1936;47.074;15.336;2022-07-04T05:14:05;5.63;;;5.13;;
3841;SDS011;1936;47.074;15.336;2022-07-04T05:16:09;8.60;;;5.10;;
3841;SDS011;1936;47.074;15.336;2022-07-04T05:18:13;5.73;;;5.17;;
3841;SDS011;1936;47.074;15.336;2022-07-04T05:20:17;4.93;;;4.53;;
3841;SDS011;1936;47.074;15.336;2022-07-04T05:22:20;5.10;;;4.67;;
3841;SDS011;1936;47.074;15.336;2022-07-04T05:24:24;7.37;;;5.57;;
3841;SDS011;1936;47.074;15.336;2022-07-04T05:26:27;8.40;;;4.80;;
3841;SDS011;1936;47.074;15.336;2022-07-04T05:28:30;6.30;;;5.10;;
3841;SDS011;1936;47.074;15.336;2022-07-04T05:30:35;5.40;;;4.87;;
3841;SDS011;1936;47.074;15.336;2022-07-04T05:32:39;10.03;;;4.90;;
3841;SDS011;1936;47.074;15.336;2022-07-04T05:34:42;6.50;;;5.90;;
3841;SDS011;1936;47.074;15.336;2022-07-04T05:36:47;6.13;;;5.53;;
3841;SDS011;1936;47.074;15.336;2022-07-04T05:38:50;6.90;;;4.53;;
3841;SDS011;1936;47.074;15.336;2022-07-04T05:40:54;4.90;;;4.50;;
3841;SDS011;1936;47.074;15.336;2022-07-04T05:42:57;8.67;;;4.37;;
3841;SDS011;1936;47.074;15.336;2022-07-04T05:45:01;5.20;;;4.40;;
3841;SDS011;1936;47.074;15.336;2022-07-04T05:47:06;8.10;;;4.00;;
3841;SDS011;1936;47.074;15.336;2022-07-04T05:49:10;5.13;;;3.87;;
3841;SDS011;1936;47.074;15.336;2022-07-04T05:51:13;4.77;;;4.03;;
3841;SDS011;1936;47.074;15.336;2022-07-04T05:53:17;6.00;;;5.47;;
3841;SDS011;1936;47.074;15.336;2022-07-04T05:55:20;5.63;;;5.13;;
3841;SDS011;1936;47.074;15.336;2022-07-04T05:57:24;5.70;;;5.10;;
3841;SDS011;1936;47.074;15.336;2022-07-04T05:59:27;6.70;;;5.37;;
3841;SDS011;1936;47.074;15.336;2022-07-04T06:01:31;5.53;;;4.53;;
3841;SDS011;1936;47.074;15.336;2022-07-04T06:03:36;8.23;;;5.00;;
3841;SDS011;1936;47.074;15.336;2022-07-04T06:05:40;10.10;;;5.57;;
3841;SDS011;1936;47.074;15.336;2022-07-04T06:07:44;5.97;;;5.47;;
3841;SDS011;1936;47.074;15.336;2022-07-04T06:09:50;6.40;;;5.67;;
3841;SDS011;1936;47.074;15.336;2022-07-04T06:11:54;8.33;;;5.10;;
3841;SDS011;1936;47.074;15.336;2022-07-04T06:14:00;6.27;;;5.67;;
3841;SDS011;1936;47.074;15.336;2022-07-04T06:16:04;5.47;;;4.67;;
3841;SDS011;1936;47.074;15.336;2022-07-04T06:18:07;7.07;;;4.97;;
3841;SDS011;1936;47.074;15.336;2022-07-04T06:20:12;6.37;;;5.57;;
3841;SDS011;1936;47.074;15.336;2022-07-04T06:22:16;11.40;;;5.00;;
3841;SDS011;1936;47.074;15.336;2022-07-04T06:24:25;7.23;;;4.97;;
3841;SDS011;1936;47.074;15.336;2022-07-04T06:26:29;6.53;;;5.43;;
3841;SDS011;1936;47.074;15.336;2022-07-04T06:28:32;6.00;;;5.20;;
3841;SDS011;1936;47.074;15.336;2022-07-04T06:30:51;7.40;;;5.63;;
3841;SDS011;1936;47.074;15.336;2022-07-04T06:32:55;7.03;;;4.87;;
3841;SDS011;1936;47.074;15.336;2022-07-04T06:35:00;6.03;;;5.47;;
3841;SDS011;1936;47.074;15.336;2022-07-04T06:37:37;6.37;;;5.00;;
3841;SDS011;1936;47.074;15.336;2022-07-04T06:39:41;9.30;;;5.57;;
3841;SDS011;1936;47.074;15.336;2022-07-04T06:41:44;5.03;;;4.60;;
3841;SDS011;1936;47.074;15.336;2022-07-04T06:43:48;4.40;;;4.00;;
3841;SDS011;1936;47.074;15.336;2022-07-04T06:45:51;8.60;;;4.53;;
3841;SDS011;1936;47.074;15.336;2022-07-04T06:47:55;5.63;;;5.23;;
3841;SDS011;1936;47.074;15.336;2022-07-04T06:49:58;5.53;;;4.43;;
3841;SDS011;1936;47.074;15.336;2022-07-04T06:52:22;5.53;;;4.70;;
3841;SDS011;1936;47.074;15.336;2022-07-04T06:54:27;5.40;;;4.80;;
3841;SDS011;1936;47.074;15.336;2022-07-04T06:56:48;6.70;;;5.27;;
3841;SDS011;1936;47.074;15.336;2022-07-04T06:59:12;4.70;;;4.27;;
3841;SDS011;1936;47.074;15.336;2022-07-04T07:01:16;5.30;;;4.80;;
3841;SDS011;1936;47.074;15.336;2022-07-04T07:03:19;5.43;;;3.97;;
3841;SDS011;1936;47.074;15.336;2022-07-04T07:05:23;6.77;;;5.23;;
3841;SDS011;1936;47.074;15.336;2022-07-04T07:07:47;4.80;;;4.40;;
3841;SDS011;1936;47.074;15.336;2022-07-04T07:09:52;6.80;;;5.03;;
3841;SDS011;1936;47.074;15.336;2022-07-04T07:11:56;5.07;;;4.57;;
3841;SDS011;1936;47.074;15.336;2022-07-04T07:14:00;9.47;;;5.17;;
3841;SDS011;1936;47.074;15.336;2022-07-04T07:16:03;5.77;;;5.17;;
3841;SDS011;1936;47.074;15.336;2022-07-04T07:18:07;6.10;;;4.70;;
3841;SDS011;1936;47.074;15.336;2022-07-04T07:20:11;5.73;;;5.17;;
3841;SDS011;1936;47.074;15.336;2022-07-04T07:22:15;5.20;;;4.70;;
3841;SDS011;1936;47.074;15.336;2022-07-04T07:24:19;5.27;;;4.87;;
3841;SDS011;1936;47.074;15.336;2022-07-04T07:26:24;9.17;;;5.13;;
3841;SDS011;1936;47.074;15.336;2022-07-04T07:28:27;5.00;;;4.50;;
3841;SDS011;1936;47.074;15.336;2022-07-04T07:30:31;5.20;;;4.67;;
3841;SDS011;1936;47.074;15.336;2022-07-04T07:32:34;4.87;;;4.37;;
3841;SDS011;1936;47.074;15.336;2022-07-04T07:34:38;6.77;;;4.83;;
3841;SDS011;1936;47.074;15.336;2022-07-04T07:36:41;5.70;;;4.80;;
3841;SDS011;1936;47.074;15.336;2022-07-04T07:38:45;6.60;;;4.80;;
3841;SDS011;1936;47.074;15.336;2022-07-04T07:40:48;6.50;;;4.63;;
3841;SDS011;1936;47.074;15.336;2022-07-04T07:42:54;4.90;;;4.43;;
3841;SDS011;1936;47.074;15.336;2022-07-04T07:44:58;4.63;;;3.77;;
3841;SDS011;1936;47.074;15.336;2022-07-04T07:47:02;8.87;;;3.97;;
3841;SDS011;1936;47.074;15.336;2022-07-04T07:49:11;4.63;;;3.73;;
3841;SDS011;1936;47.074;15.336;2022-07-04T07:51:15;4.30;;;3.40;;
3841;SDS011;1936;47.074;15.336;2022-07-04T07:53:18;4.40;;;3.97;;
3841;SDS011;1936;47.074;15.336;2022-07-04T07:55:22;4.10;;;3.70;;
3841;SDS011;1936;47.074;15.336;2022-07-04T07:57:26;4.67;;;3.90;;
3841;SDS011;1936;47.074;15.336;2022-07-04T07:59:31;4.03;;;3.33;;
3841;SDS011;1936;47.074;15.336;2022-07-04T08:01:35;4.17;;;3.77;;
3841;SDS011;1936;47.074;15.336;2022-07-04T08:03:38;4.40;;;3.90;;
3841;SDS011;1936;47.074;15.336;2022-07-04T08:06:22;8.67;;;3.50;;
3841;SDS011;1936;47.074;15.336;2022-07-04T08:08:25;7.57;;;4.47;;
3841;SDS011;1936;47.074;15.336;2022-07-04T08:10:29;4.37;;;4.03;;
3841;SDS011;1936;47.074;15.336;2022-07-04T08:12:32;6.40;;;4.27;;
3841;SDS011;1936;47.074;15.336;2022-07-04T08:14:38;4.97;;;4.20;;
3841;SDS011;1936;47.074;15.336;2022-07-04T08:16:41;5.40;;;4.90;;
3841;SDS011;1936;47.074;15.336;2022-07-04T08:18:56;5.60;;;3.90;;
3841;SDS011;1936;47.074;15.336;2022-07-04T08:20:59;6.27;;;4.10;;
3841;SDS011;1936;47.074;15.336;2022-07-04T08:23:12;4.17;;;3.17;;
3841;SDS011;1936;47.074;15.336;2022-07-04T08:25:33;6.73;;;4.20;;
3841;SDS011;1936;47.074;15.336;2022-07-04T08:27:39;4.50;;;3.43;;
3841;SDS011;1936;47.074;15.336;2022-07-04T08:29:44;3.57;;;3.27;;
3841;SDS011;1936;47.074;15.336;2022-07-04T08:31:48;3.70;;;3.40;;
3841;SDS011;1936;47.074;15.336;2022-07-04T08:33:53;4.33;;;3.63;;
3841;SDS011;1936;47.074;15.336;2022-07-04T08:35:56;3.37;;;2.97;;
3841;SDS011;1936;47.074;15.336;2022-07-04T08:38:00;3.63;;;3.10;;
3841;SDS011;1936;47.074;15.336;2022-07-04T08:40:04;11.03;;;3.80;;
3841;SDS011;1936;47.074;15.336;2022-07-04T08:42:09;3.93;;;3.10;;
3841;SDS011;1936;47.074;15.336;2022-07-04T08:44:16;3.03;;;2.70;;
3841;SDS011;1936;47.074;15.336;2022-07-04T08:46:21;3.57;;;3.27;;
3841;SDS011;1936;47.074;15.336;2022-07-04T08:48:30;5.40;;;3.20;;
3841;SDS011;1936;47.074;15.336;2022-07-04T08:50:34;5.00;;;3.57;;
3841;SDS011;1936;47.074;15.336;2022-07-04T08:52:38;5.90;;;3.00;;
3841;SDS011;1936;47.074;15.336;2022-07-04T08:54:42;4.40;;;3.00;;
3841;SDS011;1936;47.074;15.336;2022-07-04T08:57:03;3.80;;;3.17;;
3841;SDS011;1936;47.074;15.336;2022-07-04T08:59:24;4.80;;;3.20;;
3841;SDS011;1936;47.074;15.336;2022-07-04T09:01:29;5.40;;;2.93;;
3841;SDS011;1936;47.074;15.336;2022-07-04T09:03:34;3.77;;;2.70;;
3841;SDS011;1936;47.074;15.336;2022-07-04T09:05:38;3.60;;;3.30;;
3841;SDS011;1936;47.074;15.336;2022-07-04T09:07:41;3.53;;;3.23;;
3841;SDS011;1936;47.074;15.336;2022-07-04T09:09:45;6.27;;;3.27;;
3841;SDS011;1936;47.074;15.336;2022-07-04T09:11:52;3.33;;;3.10;;
3841;SDS011;1936;47.074;15.336;2022-07-04T09:13:56;5.53;;;2.80;;
3841;SDS011;1936;47.074;15.336;2022-07-04T09:16:01;5.20;;;3.73;;
3841;SDS011;1936;47.074;15.336;2022-07-04T09:18:06;5.60;;;3.27;;
3841;SDS011;1936;47.074;15.336;2022-07-04T09:20:11;3.50;;;3.20;;
3841;SDS011;1936;47.074;15.336;2022-07-04T09:22:14;4.30;;;3.90;;
3841;SDS011;1936;47.074;15.336;2022-07-04T09:24:21;4.30;;;3.20;;
3841;SDS011;1936;47.074;15.336;2022-07-04T09:26:44;5.60;;;4.37;;
3841;SDS011;1936;47.074;15.336;2022-07-04T09:28:50;3.10;;;2.90;;
3841;SDS011;1936;47.074;15.336;2022-07-04T09:30:54;3.60;;;3.30;;
3841;SDS011;1936;47.074;15.336;2022-07-04T09:32:59;9.50;;;4.63;;
3841;SDS011;1936;47.074;15.336;2022-07-04T09:35:06;3.33;;;3.07;;
3841;SDS011;1936;47.074;15.336;2022-07-04T09:37:10;5.00;;;3.80;;
3841;SDS011;1936;47.074;15.336;2022-07-04T09:39:14;4.03;;;3.00;;
3841;SDS011;1936;47.074;15.336;2022-07-04T09:41:19;3.13;;;2.83;;
3841;SDS011;1936;47.074;15.336;2022-07-04T09:43:31;3.87;;;3.57;;
3841;SDS011;1936;47.074;15.336;2022-07-04T09:45:34;4.70;;;3.43;;
3841;SDS011;1936;47.074;15.336;2022-07-04T09:47:38;3.97;;;2.93;;
3841;SDS011;1936;47.074;15.336;2022-07-04T09:49:45;6.30;;;3.40;;
3841;SDS011;1936;47.074;15.336;2022-07-04T09:52:02;4.80;;;3.60;;
3841;SDS011;1936;47.074;15.336;2022-07-04T09:54:12;3.10;;;2.80;;
3841;SDS011;1936;47.074;15.336;2022-07-04T09:56:16;9.10;;;3.60;;
3841;SDS011;1936;47.074;15.336;2022-07-04T09:58:19;8.10;;;3.07;;
3841;SDS011;1936;47.074;15.336;2022-07-04T10:00:24;3.33;;;3.03;;
3841;SDS011;1936;47.074;15.336;2022-07-04T10:02:28;2.97;;;2.77;;
3841;SDS011;1936;47.074;15.336;2022-07-04T10:04:40;4.40;;;2.83;;
3841;SDS011;1936;47.074;15.336;2022-07-04T10:06:44;2.93;;;2.63;;
3841;SDS011;1936;47.074;15.336;2022-07-04T10:08:49;3.03;;;2.70;;
3841;SDS011;1936;47.074;15.336;2022-07-04T10:10:56;2.67;;;2.30;;
3841;SDS011;1936;47.074;15.336;2022-07-04T10:13:00;3.33;;;2.93;;
3841;SDS011;1936;47.074;15.336;2022-07-04T10:15:05;6.20;;;3.50;;
3841;SDS011;1936;47.074;15.336;2022-07-04T10:17:10;3.33;;;2.97;;
3841;SDS011;1936;47.074;15.336;2022-07-04T10:19:18;3.57;;;3.27;;
3841;SDS011;1936;47.074;15.336;2022-07-04T10:21:23;4.23;;;3.00;;
3841;SDS011;1936;47.074;15.336;2022-07-04T10:23:27;4.30;;;3.10;;
3841;SDS011;1936;47.074;15.336;2022-07-04T10:25:34;7.47;;;3.17;;
3841;SDS011;1936;47.074;15.336;2022-07-04T10:27:38;3.47;;;3.17;;
3841;SDS011;1936;47.074;15.336;2022-07-04T10:29:41;4.47;;;3.80;;
3841;SDS011;1936;47.074;15.336;2022-07-04T10:31:45;3.80;;;3.03;;
3841;SDS011;1936;47.074;15.336;2022-07-04T10:33:49;4.70;;;3.80;;
3841;SDS011;1936;47.074;15.336;2022-07-04T10:35:54;6.53;;;3.57;;
3841;SDS011;1936;47.074;15.336;2022-07-04T10:37:58;3.63;;;3.33;;
3841;SDS011;1936;47.074;15.336;2022-07-04T10:40:02;3.63;;;3.10;;
3841;SDS011;1936;47.074;15.336;2022-07-04T10:42:08;6.90;;;3.63;;
3841;SDS011;1936;47.074;15.336;2022-07-04T10:44:21;9.10;;;3.30;;
3841;SDS011;1936;47.074;15.336;2022-07-04T10:46:28;3.40;;;3.10;;
3841;SDS011;1936;47.074;15.336;2022-07-04T10:48:33;3.60;;;2.97;;
3841;SDS011;1936;47.074;15.336;2022-07-04T10:50:36;2.53;;;2.33;;
3841;SDS011;1936;47.074;15.336;2022-07-04T10:52:40;5.83;;;3.00;;
3841;SDS011;1936;47.074;15.336;2022-07-04T10:54:44;5.73;;;2.90;;
3841;SDS011;1936;47.074;15.336;2022-07-04T10:56:52;3.67;;;3.33;;
3841;SDS011;1936;47.074;15.336;2022-07-04T10:58:57;3.70;;;3.37;;
3841;SDS011;1936;47.074;15.336;2022-07-04T11:01:09;3.40;;;3.10;;
3841;SDS011;1936;47.074;15.336;2022-07-04T11:03:16;3.30;;;3.10;;
3841;SDS011;1936;47.074;15.336;2022-07-04T11:05:30;2.53;;;2.33;;
3841;SDS011;1936;47.074;15.336;2022-07-04T11:12:23;3.00;;;2.50;;
3841;SDS011;1936;47.074;15.336;2022-07-04T11:14:31;4.20;;;3.03;;
3841;SDS011;1936;47.074;15.336;2022-07-04T11:18:53;4.53;;;2.90;;
3841;SDS011;1936;47.074;15.336;2022-07-04T11:26:48;4.33;;;3.40;;
3841;SDS011;1936;47.074;15.336;2022-07-04T11:28:51;5.30;;;3.33;;
3841;SDS011;1936;47.074;15.336;2022-07-04T11:30:57;3.37;;;3.07;;
3841;SDS011;1936;47.074;15.336;2022-07-04T11:33:01;3.90;;;3.17;;
3841;SDS011;1936;47.074;15.336;2022-07-04T11:35:05;3.30;;;3.00;;
3841;SDS011;1936;47.074;15.336;2022-07-04T11:37:09;3.20;;;2.77;;
3841;SDS011;1936;47.074;15.336;2022-07-04T11:39:13;3.00;;;2.63;;
3841;SDS011;1936;47.074;15.336;2022-07-04T11:41:21;3.37;;;3.07;;
3841;SDS011;1936;47.074;15.336;2022-07-04T11:43:43;3.40;;;3.10;;
3841;SDS011;1936;47.074;15.336;2022-07-04T11:46:11;3.63;;;2.90;;
3841;SDS011;1936;47.074;15.336;2022-07-04T11:48:20;3.00;;;2.70;;
3841;SDS011;1936;47.074;15.336;2022-07-04T11:50:23;4.30;;;3.10;;
3841;SDS011;1936;47.074;15.336;2022-07-04T11:52:27;4.43;;;3.27;;
3841;SDS011;1936;47.074;15.336;2022-07-04T11:54:51;3.97;;;2.90;;
3841;SDS011;1936;47.074;15.336;2022-07-04T11:57:07;3.40;;;3.10;;
3841;SDS011;1936;47.074;15.336;2022-07-04T11:59:12;4.27;;;3.37;;
3841;SDS011;1936;47.074;15.336;2022-07-04T12:01:26;5.93;;;3.43;;
3841;SDS011;1936;47.074;15.336;2022-07-04T12:03:31;4.80;;;3.30;;
3841;SDS011;1936;47.074;15.336;2022-07-04T12:05:35;3.27;;;3.07;;
3841;SDS011;1936;47.074;15.336;2022-07-04T12:07:40;3.27;;;3.07;;
3841;SDS011;1936;47.074;15.336;2022-07-04T12:10:07;3.80;;;3.50;;
3841;SDS011;1936;47.074;15.336;2022-07-04T12:12:11;4.57;;;3.27;;
3841;SDS011;1936;47.074;15.336;2022-07-04T12:14:15;3.10;;;2.80;;
3841;SDS011;1936;47.074;15.336;2022-07-04T12:16:18;4.20;;;3.27;;
3841;SDS011;1936;47.074;15.336;2022-07-04T12:18:24;4.43;;;2.73;;
3841;SDS011;1936;47.074;15.336;2022-07-04T12:20:29;4.40;;;3.73;;
3841;SDS011;1936;47.074;15.336;2022-07-04T12:22:34;7.33;;;3.60;;
3841;SDS011;1936;47.074;15.336;2022-07-04T12:24:39;3.43;;;3.10;;
3841;SDS011;1936;47.074;15.336;2022-07-04T12:26:47;3.40;;;3.10;;
3841;SDS011;1936;47.074;15.336;2022-07-04T12:28:52;4.80;;;2.90;;
3841;SDS011;1936;47.074;15.336;2022-07-04T12:30:56;6.40;;;2.77;;
3841;SDS011;1936;47.074;15.336;2022-07-04T12:33:10;5.93;;;3.23;;
3841;SDS011;1936;47.074;15.336;2022-07-04T12:37:37;3.27;;;2.97;;
3841;SDS011;1936;47.074;15.336;2022-07-04T12:39:41;3.80;;;3.17;;
3841;SDS011;1936;47.074;15.336;2022-07-04T12:41:45;3.20;;;3.00;;
3841;SDS011;1936;47.074;15.336;2022-07-04T12:43:50;3.60;;;3.30;;
3841;SDS011;1936;47.074;15.336;2022-07-04T12:45:55;3.63;;;3.33;;
3841;SDS011;1936;47.074;15.336;2022-07-04T12:47:59;3.23;;;2.93;;
3841;SDS011;1936;47.074;15.336;2022-07-04T12:50:03;3.07;;;2.87;;
3841;SDS011;1936;47.074;15.336;2022-07-04T12:52:07;4.50;;;2.50;;
3841;SDS011;1936;47.074;15.336;2022-07-04T12:54:12;3.30;;;3.10;;
3841;SDS011;1936;47.074;15.336;2022-07-04T12:56:29;3.67;;;2.50;;
3841;SDS011;1936;47.074;15.336;2022-07-04T12:58:33;3.03;;;2.80;;
3841;SDS011;1936;47.074;15.336;2022-07-04T13:00:37;3.70;;;2.80;;
3841;SDS011;1936;47.074;15.336;2022-07-04T13:02:40;3.33;;;3.00;;